sensor_id;sensor_type;location;lat;lon;timestamp;P1;durP1;ratioP1;P2;durP2;ratioP2
48861;SDS011;34681;49.188;-0.374;2023-07-09T00:01:19;5.30;;;4.80;;
48861;SDS011;34681;49.188;-0.374;2023-07-09T00:03:44;7.43;;;5.63;;
48861;SDS011;34681;49.188;-0.374;2023-07-09T00:06:11;5.10;;;4.70;;
48861;SDS011;34681;49.188;-0.374;2023-07-09T00:08:38;5.30;;;4.67;;
48861;SDS011;34681;49.188;-0.374;2023-07-09T00:11:09;7.60;;;4.90;;
48861;SDS011;34681;49.188;-0.374;2023-07-09T00:13:34;5.23;;;4.73;;
48861;SDS011;34681;49.188;-0.374;2023-07-09T00:16:01;5.67;;;4.20;;
48861;SDS011;34681;49.188;-0.374;2023-07-09T00:18:32;4.53;;;4.13;;
48861;SDS011;34681;49.188;-0.374;2023-07-09T00:20:59;4.87;;;4.40;;
48861;SDS011;34681;49.188;-0.374;2023-07-09T00:23:25;4.50;;;4.10;;
48861;SDS011;34681;49.188;-0.374;2023-07-09T00:25:52;5.77;;;4.93;;
48861;SDS011;34681;49.188;-0.374;2023-07-09T00:28:17;5.83;;;4.10;;
48861;SDS011;34681;49.188;-0.374;2023-07-09T00:30:44;6.00;;;5.10;;
48861;SDS011;34681;49.188;-0.374;2023-07-09T00:33:13;6.20;;;4.70;;
48861;SDS011;34681;49.188;-0.374;2023-07-09T00:35:44;4.63;;;4.27;;
48861;SDS011;34681;49.188;-0.374;2023-07-09T00:38:15;5.60;;;5.00;;
48861;SDS011;34681;49.188;-0.374;2023-07-09T00:40:58;6.37;;;4.80;;
48861;SDS011;34681;49.188;-0.374;2023-07-09T00:43:30;4.43;;;4.00;;
48861;SDS011;34681;49.188;-0.374;2023-07-09T00:48:45;4.20;;;3.90;;
48861;SDS011;34681;49.188;-0.374;2023-07-09T00:51:17;5.20;;;4.70;;
48861;SDS011;34681;49.188;-0.374;2023-07-09T00:53:45;5.67;;;5.07;;
48861;SDS011;34681;49.188;-0.374;2023-07-09T00:56:16;4.90;;;4.33;;
48861;SDS011;34681;49.188;-0.374;2023-07-09T00:58:50;5.17;;;4.70;;
48861;SDS011;34681;49.188;-0.374;2023-07-09T01:01:18;4.93;;;4.63;;
48861;SDS011;34681;49.188;-0.374;2023-07-09T01:03:48;6.67;;;4.67;;
48861;SDS011;34681;49.188;-0.374;2023-07-09T01:06:19;5.60;;;4.67;;
48861;SDS011;34681;49.188;-0.374;2023-07-09T01:08:55;7.80;;;4.63;;
48861;SDS011;34681;49.188;-0.374;2023-07-09T01:11:21;4.07;;;3.67;;
48861;SDS011;34681;49.188;-0.374;2023-07-09T01:13:47;7.87;;;4.70;;
48861;SDS011;34681;49.188;-0.374;2023-07-09T01:16:16;5.83;;;4.47;;
48861;SDS011;34681;49.188;-0.374;2023-07-09T01:18:42;8.13;;;4.33;;
48861;SDS011;34681;49.188;-0.374;2023-07-09T01:21:09;8.27;;;5.20;;
48861;SDS011;34681;49.188;-0.374;2023-07-09T01:23:40;9.00;;;5.17;;
48861;SDS011;34681;49.188;-0.374;2023-07-09T01:26:08;12.40;;;5.10;;
48861;SDS011;34681;49.188;-0.374;2023-07-09T01:28:36;9.83;;;4.87;;
48861;SDS011;34681;49.188;-0.374;2023-07-09T01:31:02;10.37;;;5.33;;
48861;SDS011;34681;49.188;-0.374;2023-07-09T01:33:29;6.67;;;3.90;;
48861;SDS011;34681;49.188;-0.374;2023-07-09T01:35:55;4.27;;;3.87;;
48861;SDS011;34681;49.188;-0.374;2023-07-09T01:38:25;8.03;;;4.67;;
48861;SDS011;34681;49.188;-0.374;2023-07-09T01:40:55;4.97;;;3.20;;
48861;SDS011;34681;49.188;-0.374;2023-07-09T01:43:21;10.47;;;4.67;;
48861;SDS011;34681;49.188;-0.374;2023-07-09T01:45:47;6.87;;;4.33;;
48861;SDS011;34681;49.188;-0.374;2023-07-09T01:48:15;6.10;;;3.23;;
48861;SDS011;34681;49.188;-0.374;2023-07-09T01:50:40;5.47;;;3.87;;
48861;SDS011;34681;49.188;-0.374;2023-07-09T01:53:08;12.00;;;3.80;;
48861;SDS011;34681;49.188;-0.374;2023-07-09T01:55:36;10.43;;;3.60;;
48861;SDS011;34681;49.188;-0.374;2023-07-09T01:58:02;4.47;;;3.17;;
48861;SDS011;34681;49.188;-0.374;2023-07-09T02:00:32;5.27;;;2.97;;
48861;SDS011;34681;49.188;-0.374;2023-07-09T02:03:00;9.23;;;3.40;;
48861;SDS011;34681;49.188;-0.374;2023-07-09T02:05:27;7.93;;;3.20;;
48861;SDS011;34681;49.188;-0.374;2023-07-09T02:07:55;7.00;;;3.30;;
48861;SDS011;34681;49.188;-0.374;2023-07-09T02:10:21;6.50;;;3.23;;
48861;SDS011;34681;49.188;-0.374;2023-07-09T02:12:46;7.60;;;3.40;;
48861;SDS011;34681;49.188;-0.374;2023-07-09T02:15:12;5.20;;;2.77;;
48861;SDS011;34681;49.188;-0.374;2023-07-09T02:17:37;3.63;;;2.67;;
48861;SDS011;34681;49.188;-0.374;2023-07-09T02:20:03;6.90;;;3.20;;
48861;SDS011;34681;49.188;-0.374;2023-07-09T02:22:31;11.40;;;4.47;;
48861;SDS011;34681;49.188;-0.374;2023-07-09T02:24:57;6.83;;;3.17;;
48861;SDS011;34681;49.188;-0.374;2023-07-09T02:27:22;10.40;;;3.77;;
48861;SDS011;34681;49.188;-0.374;2023-07-09T02:29:48;7.03;;;3.00;;
48861;SDS011;34681;49.188;-0.374;2023-07-09T02:32:16;5.33;;;3.00;;
48861;SDS011;34681;49.188;-0.374;2023-07-09T02:34:43;7.13;;;3.50;;
48861;SDS011;34681;49.188;-0.374;2023-07-09T02:37:14;7.00;;;3.37;;
48861;SDS011;34681;49.188;-0.374;2023-07-09T02:39:41;5.50;;;4.13;;
48861;SDS011;34681;49.188;-0.374;2023-07-09T02:42:09;6.17;;;3.00;;
48861;SDS011;34681;49.188;-0.374;2023-07-09T02:44:36;3.73;;;2.50;;
48861;SDS011;34681;49.188;-0.374;2023-07-09T02:47:02;6.27;;;3.70;;
48861;SDS011;34681;49.188;-0.374;2023-07-09T02:49:27;5.73;;;3.40;;
48861;SDS011;34681;49.188;-0.374;2023-07-09T02:51:53;6.00;;;3.20;;
48861;SDS011;34681;49.188;-0.374;2023-07-09T02:54:18;4.10;;;2.87;;
48861;SDS011;34681;49.188;-0.374;2023-07-09T02:56:43;7.80;;;3.63;;
48861;SDS011;34681;49.188;-0.374;2023-07-09T02:59:09;4.00;;;3.17;;
48861;SDS011;34681;49.188;-0.374;2023-07-09T03:01:34;6.53;;;3.00;;
48861;SDS011;34681;49.188;-0.374;2023-07-09T03:04:00;5.80;;;2.73;;
48861;SDS011;34681;49.188;-0.374;2023-07-09T03:06:28;5.03;;;3.00;;
48861;SDS011;34681;49.188;-0.374;2023-07-09T03:08:54;4.73;;;2.93;;
48861;SDS011;34681;49.188;-0.374;2023-07-09T03:11:20;7.00;;;3.07;;
48861;SDS011;34681;49.188;-0.374;2023-07-09T03:13:47;6.87;;;3.40;;
48861;SDS011;34681;49.188;-0.374;2023-07-09T03:16:13;4.73;;;3.17;;
48861;SDS011;34681;49.188;-0.374;2023-07-09T03:18:40;4.27;;;2.70;;
48861;SDS011;34681;49.188;-0.374;2023-07-09T03:21:05;8.23;;;3.20;;
48861;SDS011;34681;49.188;-0.374;2023-07-09T03:23:31;6.33;;;2.87;;
48861;SDS011;34681;49.188;-0.374;2023-07-09T03:25:56;3.50;;;2.80;;
48861;SDS011;34681;49.188;-0.374;2023-07-09T03:28:22;3.30;;;2.47;;
48861;SDS011;34681;49.188;-0.374;2023-07-09T03:30:48;5.67;;;2.47;;
48861;SDS011;34681;49.188;-0.374;2023-07-09T03:33:14;4.30;;;2.57;;
48861;SDS011;34681;49.188;-0.374;2023-07-09T03:35:41;4.37;;;2.20;;
48861;SDS011;34681;49.188;-0.374;2023-07-09T03:38:07;6.67;;;2.43;;
48861;SDS011;34681;49.188;-0.374;2023-07-09T03:40:34;11.37;;;3.10;;
48861;SDS011;34681;49.188;-0.374;2023-07-09T03:42:59;3.57;;;2.40;;
48861;SDS011;34681;49.188;-0.374;2023-07-09T03:45:25;6.47;;;2.93;;
48861;SDS011;34681;49.188;-0.374;2023-07-09T03:47:51;3.13;;;2.73;;
48861;SDS011;34681;49.188;-0.374;2023-07-09T03:50:17;5.57;;;2.80;;
48861;SDS011;34681;49.188;-0.374;2023-07-09T03:52:43;8.40;;;2.60;;
48861;SDS011;34681;49.188;-0.374;2023-07-09T03:55:09;6.47;;;2.73;;
48861;SDS011;34681;49.188;-0.374;2023-07-09T03:57:35;6.67;;;2.80;;
48861;SDS011;34681;49.188;-0.374;2023-07-09T04:00:02;4.77;;;2.30;;
48861;SDS011;34681;49.188;-0.374;2023-07-09T04:02:29;5.43;;;2.20;;
48861;SDS011;34681;49.188;-0.374;2023-07-09T04:04:54;4.63;;;2.70;;
48861;SDS011;34681;49.188;-0.374;2023-07-09T04:07:20;6.30;;;2.67;;
48861;SDS011;34681;49.188;-0.374;2023-07-09T04:09:45;4.07;;;2.90;;
48861;SDS011;34681;49.188;-0.374;2023-07-09T04:12:11;4.20;;;2.53;;
48861;SDS011;34681;49.188;-0.374;2023-07-09T04:14:36;5.83;;;3.67;;
48861;SDS011;34681;49.188;-0.374;2023-07-09T04:17:02;5.70;;;3.40;;
48861;SDS011;34681;49.188;-0.374;2023-07-09T04:19:28;6.10;;;2.63;;
48861;SDS011;34681;49.188;-0.374;2023-07-09T04:21:53;4.40;;;3.13;;
48861;SDS011;34681;49.188;-0.374;2023-07-09T04:24:19;6.43;;;2.80;;
48861;SDS011;34681;49.188;-0.374;2023-07-09T04:26:45;3.60;;;2.63;;
48861;SDS011;34681;49.188;-0.374;2023-07-09T04:29:11;2.43;;;1.97;;
48861;SDS011;34681;49.188;-0.374;2023-07-09T04:31:38;7.93;;;3.23;;
48861;SDS011;34681;49.188;-0.374;2023-07-09T04:34:04;5.60;;;2.83;;
48861;SDS011;34681;49.188;-0.374;2023-07-09T04:36:29;5.13;;;2.40;;
48861;SDS011;34681;49.188;-0.374;2023-07-09T04:38:56;2.93;;;2.50;;
48861;SDS011;34681;49.188;-0.374;2023-07-09T04:41:21;7.53;;;3.20;;
48861;SDS011;34681;49.188;-0.374;2023-07-09T04:43:47;7.50;;;2.87;;
48861;SDS011;34681;49.188;-0.374;2023-07-09T04:46:12;7.97;;;3.30;;
48861;SDS011;34681;49.188;-0.374;2023-07-09T04:48:38;7.90;;;3.77;;
48861;SDS011;34681;49.188;-0.374;2023-07-09T04:51:03;5.93;;;2.90;;
48861;SDS011;34681;49.188;-0.374;2023-07-09T04:53:29;6.20;;;2.90;;
48861;SDS011;34681;49.188;-0.374;2023-07-09T04:55:55;7.57;;;3.20;;
48861;SDS011;34681;49.188;-0.374;2023-07-09T04:58:20;5.07;;;3.20;;
48861;SDS011;34681;49.188;-0.374;2023-07-09T05:00:46;6.30;;;3.33;;
48861;SDS011;34681;49.188;-0.374;2023-07-09T05:03:11;4.73;;;2.93;;
48861;SDS011;34681;49.188;-0.374;2023-07-09T05:05:43;6.00;;;2.83;;
48861;SDS011;34681;49.188;-0.374;2023-07-09T05:08:11;4.83;;;3.87;;
48861;SDS011;34681;49.188;-0.374;2023-07-09T05:10:43;5.03;;;2.47;;
48861;SDS011;34681;49.188;-0.374;2023-07-09T05:13:14;4.23;;;2.60;;
48861;SDS011;34681;49.188;-0.374;2023-07-09T05:15:40;4.17;;;2.23;;
48861;SDS011;34681;49.188;-0.374;2023-07-09T05:18:07;5.50;;;2.30;;
48861;SDS011;34681;49.188;-0.374;2023-07-09T05:20:33;5.33;;;2.50;;
48861;SDS011;34681;49.188;-0.374;2023-07-09T05:22:59;3.60;;;2.27;;
48861;SDS011;34681;49.188;-0.374;2023-07-09T05:25:24;4.03;;;2.13;;
48861;SDS011;34681;49.188;-0.374;2023-07-09T05:27:50;3.67;;;2.67;;
48861;SDS011;34681;49.188;-0.374;2023-07-09T05:30:16;3.93;;;2.20;;
48861;SDS011;34681;49.188;-0.374;2023-07-09T05:32:42;2.47;;;2.27;;
48861;SDS011;34681;49.188;-0.374;2023-07-09T05:35:08;2.80;;;2.27;;
48861;SDS011;34681;49.188;-0.374;2023-07-09T05:37:33;2.80;;;2.20;;
48861;SDS011;34681;49.188;-0.374;2023-07-09T05:39:59;3.63;;;2.40;;
48861;SDS011;34681;49.188;-0.374;2023-07-09T05:45:19;3.33;;;2.17;;
48861;SDS011;34681;49.188;-0.374;2023-07-09T05:47:44;3.33;;;2.10;;
48861;SDS011;34681;49.188;-0.374;2023-07-09T05:50:10;5.30;;;3.07;;
48861;SDS011;34681;49.188;-0.374;2023-07-09T05:52:35;6.97;;;2.90;;
48861;SDS011;34681;49.188;-0.374;2023-07-09T05:55:00;5.20;;;2.73;;
48861;SDS011;34681;49.188;-0.374;2023-07-09T05:57:26;5.33;;;2.43;;
48861;SDS011;34681;49.188;-0.374;2023-07-09T05:59:52;4.20;;;2.90;;
48861;SDS011;34681;49.188;-0.374;2023-07-09T06:02:19;3.43;;;2.47;;
48861;SDS011;34681;49.188;-0.374;2023-07-09T06:04:46;5.90;;;3.13;;
48861;SDS011;34681;49.188;-0.374;2023-07-09T06:07:14;6.87;;;3.20;;
48861;SDS011;34681;49.188;-0.374;2023-07-09T06:09:40;6.60;;;2.90;;
48861;SDS011;34681;49.188;-0.374;2023-07-09T06:12:06;6.00;;;2.40;;
48861;SDS011;34681;49.188;-0.374;2023-07-09T06:14:32;3.77;;;2.90;;
48861;SDS011;34681;49.188;-0.374;2023-07-09T06:16:59;4.47;;;2.20;;
48861;SDS011;34681;49.188;-0.374;2023-07-09T06:19:25;4.00;;;2.53;;
48861;SDS011;34681;49.188;-0.374;2023-07-09T06:21:51;5.00;;;3.30;;
48861;SDS011;34681;49.188;-0.374;2023-07-09T06:24:16;3.33;;;3.03;;
48861;SDS011;34681;49.188;-0.374;2023-07-09T06:26:42;2.90;;;2.70;;
48861;SDS011;34681;49.188;-0.374;2023-07-09T06:29:07;5.40;;;3.37;;
48861;SDS011;34681;49.188;-0.374;2023-07-09T06:31:32;7.30;;;3.43;;
48861;SDS011;34681;49.188;-0.374;2023-07-09T06:33:58;3.43;;;2.80;;
48861;SDS011;34681;49.188;-0.374;2023-07-09T06:36:31;2.90;;;2.60;;
48861;SDS011;34681;49.188;-0.374;2023-07-09T06:38:59;4.67;;;3.13;;
48861;SDS011;34681;49.188;-0.374;2023-07-09T06:41:24;6.73;;;3.40;;
48861;SDS011;34681;49.188;-0.374;2023-07-09T06:43:50;5.33;;;3.00;;
48861;SDS011;34681;49.188;-0.374;2023-07-09T06:46:18;6.93;;;2.97;;
48861;SDS011;34681;49.188;-0.374;2023-07-09T06:48:44;5.33;;;2.53;;
48861;SDS011;34681;49.188;-0.374;2023-07-09T06:51:10;4.80;;;3.40;;
48861;SDS011;34681;49.188;-0.374;2023-07-09T06:53:36;5.97;;;3.37;;
48861;SDS011;34681;49.188;-0.374;2023-07-09T06:56:02;4.80;;;2.33;;
48861;SDS011;34681;49.188;-0.374;2023-07-09T06:58:30;4.70;;;3.00;;
48861;SDS011;34681;49.188;-0.374;2023-07-09T07:00:59;9.83;;;3.67;;
48861;SDS011;34681;49.188;-0.374;2023-07-09T07:03:28;3.80;;;2.40;;
48861;SDS011;34681;49.188;-0.374;2023-07-09T07:05:54;3.50;;;2.77;;
48861;SDS011;34681;49.188;-0.374;2023-07-09T07:08:20;5.37;;;2.60;;
48861;SDS011;34681;49.188;-0.374;2023-07-09T07:10:53;6.07;;;3.50;;
48861;SDS011;34681;49.188;-0.374;2023-07-09T07:13:26;2.83;;;2.53;;
48861;SDS011;34681;49.188;-0.374;2023-07-09T07:15:53;5.13;;;3.13;;
48861;SDS011;34681;49.188;-0.374;2023-07-09T07:18:18;4.80;;;2.70;;
48861;SDS011;34681;49.188;-0.374;2023-07-09T07:20:44;5.03;;;3.30;;
48861;SDS011;34681;49.188;-0.374;2023-07-09T07:23:10;4.13;;;2.77;;
48861;SDS011;34681;49.188;-0.374;2023-07-09T07:25:35;4.60;;;3.40;;
48861;SDS011;34681;49.188;-0.374;2023-07-09T07:28:01;5.60;;;3.67;;
48861;SDS011;34681;49.188;-0.374;2023-07-09T07:30:26;6.97;;;3.93;;
48861;SDS011;34681;49.188;-0.374;2023-07-09T07:32:51;5.37;;;2.90;;
48861;SDS011;34681;49.188;-0.374;2023-07-09T07:35:17;4.77;;;3.20;;
48861;SDS011;34681;49.188;-0.374;2023-07-09T07:37:43;3.93;;;2.73;;
48861;SDS011;34681;49.188;-0.374;2023-07-09T07:40:09;5.00;;;3.27;;
48861;SDS011;34681;49.188;-0.374;2023-07-09T07:42:35;4.57;;;3.40;;
48861;SDS011;34681;49.188;-0.374;2023-07-09T07:45:01;4.77;;;2.70;;
48861;SDS011;34681;49.188;-0.374;2023-07-09T07:47:28;5.20;;;2.97;;
48861;SDS011;34681;49.188;-0.374;2023-07-09T07:49:53;3.63;;;3.33;;
48861;SDS011;34681;49.188;-0.374;2023-07-09T07:52:19;5.63;;;2.87;;
48861;SDS011;34681;49.188;-0.374;2023-07-09T07:54:45;3.73;;;2.77;;
48861;SDS011;34681;49.188;-0.374;2023-07-09T07:57:11;4.77;;;2.50;;
48861;SDS011;34681;49.188;-0.374;2023-07-09T07:59:37;4.33;;;2.90;;
48861;SDS011;34681;49.188;-0.374;2023-07-09T08:02:03;4.80;;;2.50;;
48861;SDS011;34681;49.188;-0.374;2023-07-09T08:04:30;6.50;;;2.80;;
48861;SDS011;34681;49.188;-0.374;2023-07-09T08:06:56;4.50;;;2.47;;
48861;SDS011;34681;49.188;-0.374;2023-07-09T08:09:21;3.47;;;2.33;;
48861;SDS011;34681;49.188;-0.374;2023-07-09T08:11:47;4.87;;;2.27;;
48861;SDS011;34681;49.188;-0.374;2023-07-09T08:14:14;3.20;;;2.20;;
48861;SDS011;34681;49.188;-0.374;2023-07-09T08:16:40;5.23;;;2.47;;
48861;SDS011;34681;49.188;-0.374;2023-07-09T08:19:05;4.37;;;3.37;;
48861;SDS011;34681;49.188;-0.374;2023-07-09T08:21:31;2.67;;;2.47;;
48861;SDS011;34681;49.188;-0.374;2023-07-09T08:23:56;3.13;;;2.83;;
48861;SDS011;34681;49.188;-0.374;2023-07-09T08:29:36;6.80;;;3.33;;
48861;SDS011;34681;49.188;-0.374;2023-07-09T08:32:02;5.83;;;3.20;;
48861;SDS011;34681;49.188;-0.374;2023-07-09T08:34:28;5.30;;;3.53;;
48861;SDS011;34681;49.188;-0.374;2023-07-09T08:36:54;7.37;;;3.20;;
48861;SDS011;34681;49.188;-0.374;2023-07-09T08:39:19;5.00;;;3.00;;
48861;SDS011;34681;49.188;-0.374;2023-07-09T08:44:24;4.50;;;3.00;;
48861;SDS011;34681;49.188;-0.374;2023-07-09T08:50:14;4.43;;;2.20;;
48861;SDS011;34681;49.188;-0.374;2023-07-09T08:52:48;5.80;;;3.27;;
48861;SDS011;34681;49.188;-0.374;2023-07-09T08:59:22;5.33;;;4.33;;
48861;SDS011;34681;49.188;-0.374;2023-07-09T09:01:51;5.17;;;3.30;;
48861;SDS011;34681;49.188;-0.374;2023-07-09T09:04:24;4.57;;;3.17;;
48861;SDS011;34681;49.188;-0.374;2023-07-09T09:09:35;7.33;;;3.73;;
48861;SDS011;34681;49.188;-0.374;2023-07-09T09:12:14;4.80;;;3.03;;
48861;SDS011;34681;49.188;-0.374;2023-07-09T09:14:49;7.77;;;4.17;;
48861;SDS011;34681;49.188;-0.374;2023-07-09T09:17:20;3.80;;;2.90;;
48861;SDS011;34681;49.188;-0.374;2023-07-09T09:19:47;3.70;;;3.20;;
48861;SDS011;34681;49.188;-0.374;2023-07-09T09:22:17;4.20;;;3.07;;
48861;SDS011;34681;49.188;-0.374;2023-07-09T09:27:54;3.23;;;2.70;;
48861;SDS011;34681;49.188;-0.374;2023-07-09T09:30:21;4.07;;;2.83;;
48861;SDS011;34681;49.188;-0.374;2023-07-09T09:32:50;3.57;;;2.90;;
48861;SDS011;34681;49.188;-0.374;2023-07-09T09:35:28;3.30;;;3.00;;
48861;SDS011;34681;49.188;-0.374;2023-07-09T09:37:56;3.20;;;2.90;;
48861;SDS011;34681;49.188;-0.374;2023-07-09T09:40:23;4.33;;;2.97;;
48861;SDS011;34681;49.188;-0.374;2023-07-09T09:42:51;3.47;;;3.17;;
48861;SDS011;34681;49.188;-0.374;2023-07-09T09:45:19;2.60;;;2.40;;
48861;SDS011;34681;49.188;-0.374;2023-07-09T09:47:49;4.20;;;2.47;;
48861;SDS011;34681;49.188;-0.374;2023-07-09T09:52:42;2.77;;;2.47;;
48861;SDS011;34681;49.188;-0.374;2023-07-09T09:55:24;3.70;;;2.97;;
48861;SDS011;34681;49.188;-0.374;2023-07-09T09:57:53;2.40;;;2.20;;
48861;SDS011;34681;49.188;-0.374;2023-07-09T10:00:24;1.97;;;1.80;;
48861;SDS011;34681;49.188;-0.374;2023-07-09T10:02:56;2.53;;;1.93;;
48861;SDS011;34681;49.188;-0.374;2023-07-09T10:05:36;2.73;;;2.33;;
48861;SDS011;34681;49.188;-0.374;2023-07-09T10:08:11;2.70;;;2.10;;
48861;SDS011;34681;49.188;-0.374;2023-07-09T10:10:41;3.17;;;1.90;;
48861;SDS011;34681;49.188;-0.374;2023-07-09T10:13:43;1.77;;;1.67;;
48861;SDS011;34681;49.188;-0.374;2023-07-09T10:16:21;1.60;;;1.50;;
48861;SDS011;34681;49.188;-0.374;2023-07-09T10:21:58;4.13;;;2.10;;
48861;SDS011;34681;49.188;-0.374;2023-07-09T10:24:37;3.80;;;1.83;;
48861;SDS011;34681;49.188;-0.374;2023-07-09T10:29:54;2.17;;;1.97;;
48861;SDS011;34681;49.188;-0.374;2023-07-09T10:35:05;2.80;;;2.60;;
48861;SDS011;34681;49.188;-0.374;2023-07-09T10:40:39;1.97;;;1.87;;
48861;SDS011;34681;49.188;-0.374;2023-07-09T10:43:11;3.37;;;2.20;;
48861;SDS011;34681;49.188;-0.374;2023-07-09T10:45:48;2.30;;;2.10;;
48861;SDS011;34681;49.188;-0.374;2023-07-09T10:48:26;4.47;;;2.30;;
48861;SDS011;34681;49.188;-0.374;2023-07-09T10:51:00;2.27;;;2.03;;
48861;SDS011;34681;49.188;-0.374;2023-07-09T10:53:29;8.70;;;3.50;;
48861;SDS011;34681;49.188;-0.374;2023-07-09T10:59:18;15.23;;;13.73;;
48861;SDS011;34681;49.188;-0.374;2023-07-09T11:01:49;13.73;;;9.80;;
48861;SDS011;34681;49.188;-0.374;2023-07-09T11:07:12;12.03;;;7.63;;
48861;SDS011;34681;49.188;-0.374;2023-07-09T11:09:42;7.53;;;5.00;;
48861;SDS011;34681;49.188;-0.374;2023-07-09T11:12:20;4.90;;;4.20;;
48861;SDS011;34681;49.188;-0.374;2023-07-09T11:17:20;25.47;;;23.27;;
48861;SDS011;34681;49.188;-0.374;2023-07-09T11:19:56;12.07;;;11.07;;
48861;SDS011;34681;49.188;-0.374;2023-07-09T11:22:26;21.87;;;19.93;;
48861;SDS011;34681;49.188;-0.374;2023-07-09T11:25:10;106.27;;;98.40;;
48861;SDS011;34681;49.188;-0.374;2023-07-09T11:27:50;92.30;;;84.43;;
48861;SDS011;34681;49.188;-0.374;2023-07-09T11:30:22;47.87;;;43.90;;
48861;SDS011;34681;49.188;-0.374;2023-07-09T11:32:53;91.77;;;86.33;;
48861;SDS011;34681;49.188;-0.374;2023-07-09T11:35:23;23.90;;;22.70;;
48861;SDS011;34681;49.188;-0.374;2023-07-09T11:37:50;5.50;;;5.10;;
48861;SDS011;34681;49.188;-0.374;2023-07-09T11:40:18;6.67;;;4.43;;
48861;SDS011;34681;49.188;-0.374;2023-07-09T11:45:37;3.10;;;2.10;;
48861;SDS011;34681;49.188;-0.374;2023-07-09T11:50:49;2.30;;;2.13;;
48861;SDS011;34681;49.188;-0.374;2023-07-09T11:55:50;5.83;;;3.10;;
48861;SDS011;34681;49.188;-0.374;2023-07-09T11:58:16;3.50;;;2.60;;
48861;SDS011;34681;49.188;-0.374;2023-07-09T12:00:49;3.00;;;2.30;;
48861;SDS011;34681;49.188;-0.374;2023-07-09T12:03:18;3.60;;;2.47;;
48861;SDS011;34681;49.188;-0.374;2023-07-09T12:05:52;2.87;;;1.90;;
48861;SDS011;34681;49.188;-0.374;2023-07-09T12:08:25;2.43;;;1.87;;
48861;SDS011;34681;49.188;-0.374;2023-07-09T12:10:54;2.60;;;2.17;;
48861;SDS011;34681;49.188;-0.374;2023-07-09T12:13:19;2.63;;;2.00;;
48861;SDS011;34681;49.188;-0.374;2023-07-09T12:15:45;2.90;;;1.87;;
48861;SDS011;34681;49.188;-0.374;2023-07-09T12:18:12;3.67;;;2.00;;
48861;SDS011;34681;49.188;-0.374;2023-07-09T12:20:39;4.83;;;1.90;;
48861;SDS011;34681;49.188;-0.374;2023-07-09T12:25:47;2.27;;;1.70;;
48861;SDS011;34681;49.188;-0.374;2023-07-09T12:28:14;1.97;;;1.87;;
48861;SDS011;34681;49.188;-0.374;2023-07-09T12:30:44;2.27;;;2.00;;
48861;SDS011;34681;49.188;-0.374;2023-07-09T12:33:18;2.50;;;2.00;;
48861;SDS011;34681;49.188;-0.374;2023-07-09T12:35:49;2.37;;;2.10;;
48861;SDS011;34681;49.188;-0.374;2023-07-09T12:38:30;2.13;;;1.93;;
48861;SDS011;34681;49.188;-0.374;2023-07-09T12:41:06;3.10;;;2.10;;
48861;SDS011;34681;49.188;-0.374;2023-07-09T12:43:43;7.47;;;2.10;;
48861;SDS011;34681;49.188;-0.374;2023-07-09T12:46:09;3.30;;;2.30;;
48861;SDS011;34681;49.188;-0.374;2023-07-09T12:48:35;3.53;;;2.73;;
48861;SDS011;34681;49.188;-0.374;2023-07-09T12:51:01;2.47;;;1.90;;
48861;SDS011;34681;49.188;-0.374;2023-07-09T12:53:31;3.00;;;2.40;;
48861;SDS011;34681;49.188;-0.374;2023-07-09T12:55:58;2.10;;;1.80;;
48861;SDS011;34681;49.188;-0.374;2023-07-09T12:58:25;2.20;;;1.50;;
48861;SDS011;34681;49.188;-0.374;2023-07-09T13:00:55;3.83;;;1.63;;
48861;SDS011;34681;49.188;-0.374;2023-07-09T13:03:29;3.07;;;1.70;;
48861;SDS011;34681;49.188;-0.374;2023-07-09T13:06:00;1.77;;;1.30;;
48861;SDS011;34681;49.188;-0.374;2023-07-09T13:08:30;2.27;;;1.50;;
48861;SDS011;34681;49.188;-0.374;2023-07-09T13:10:59;3.27;;;1.77;;
48861;SDS011;34681;49.188;-0.374;2023-07-09T13:13:25;2.73;;;1.73;;
48861;SDS011;34681;49.188;-0.374;2023-07-09T13:15:52;2.30;;;1.70;;
48861;SDS011;34681;49.188;-0.374;2023-07-09T13:18:23;1.90;;;1.80;;
48861;SDS011;34681;49.188;-0.374;2023-07-09T13:20:50;1.70;;;1.60;;
48861;SDS011;34681;49.188;-0.374;2023-07-09T13:23:20;2.83;;;1.90;;
48861;SDS011;34681;49.188;-0.374;2023-07-09T13:25:49;2.27;;;1.70;;
48861;SDS011;34681;49.188;-0.374;2023-07-09T13:28:18;2.23;;;1.77;;
48861;SDS011;34681;49.188;-0.374;2023-07-09T13:30:44;3.70;;;1.67;;
48861;SDS011;34681;49.188;-0.374;2023-07-09T13:33:10;2.67;;;1.70;;
48861;SDS011;34681;49.188;-0.374;2023-07-09T13:35:36;2.90;;;2.07;;
48861;SDS011;34681;49.188;-0.374;2023-07-09T13:38:02;2.73;;;1.80;;
48861;SDS011;34681;49.188;-0.374;2023-07-09T13:40:30;2.43;;;1.73;;
48861;SDS011;34681;49.188;-0.374;2023-07-09T13:42:56;3.70;;;1.70;;
48861;SDS011;34681;49.188;-0.374;2023-07-09T13:45:23;3.00;;;1.60;;
48861;SDS011;34681;49.188;-0.374;2023-07-09T13:47:50;4.13;;;1.73;;
48861;SDS011;34681;49.188;-0.374;2023-07-09T13:50:17;2.07;;;1.60;;
48861;SDS011;34681;49.188;-0.374;2023-07-09T13:52:43;5.00;;;2.00;;
48861;SDS011;34681;49.188;-0.374;2023-07-09T13:55:20;2.27;;;1.60;;
48861;SDS011;34681;49.188;-0.374;2023-07-09T13:57:48;3.97;;;2.23;;
48861;SDS011;34681;49.188;-0.374;2023-07-09T14:00:16;3.17;;;1.50;;
48861;SDS011;34681;49.188;-0.374;2023-07-09T14:02:42;3.30;;;1.90;;
48861;SDS011;34681;49.188;-0.374;2023-07-09T14:05:09;3.07;;;2.00;;
48861;SDS011;34681;49.188;-0.374;2023-07-09T14:07:37;2.00;;;1.30;;
48861;SDS011;34681;49.188;-0.374;2023-07-09T14:10:05;1.87;;;1.77;;
48861;SDS011;34681;49.188;-0.374;2023-07-09T14:12:34;2.53;;;1.60;;
48861;SDS011;34681;49.188;-0.374;2023-07-09T14:15:05;3.23;;;1.90;;
48861;SDS011;34681;49.188;-0.374;2023-07-09T14:17:37;1.50;;;1.40;;
48861;SDS011;34681;49.188;-0.374;2023-07-09T14:20:03;2.10;;;1.90;;
48861;SDS011;34681;49.188;-0.374;2023-07-09T14:22:33;3.40;;;2.00;;
48861;SDS011;34681;49.188;-0.374;2023-07-09T14:25:01;4.37;;;1.80;;
48861;SDS011;34681;49.188;-0.374;2023-07-09T14:27:27;2.40;;;1.70;;
48861;SDS011;34681;49.188;-0.374;2023-07-09T14:29:53;2.83;;;1.70;;
48861;SDS011;34681;49.188;-0.374;2023-07-09T14:32:31;2.30;;;2.10;;
48861;SDS011;34681;49.188;-0.374;2023-07-09T14:35:02;3.17;;;1.50;;
48861;SDS011;34681;49.188;-0.374;2023-07-09T14:37:34;2.10;;;1.67;;
48861;SDS011;34681;49.188;-0.374;2023-07-09T14:40:00;1.93;;;1.80;;
48861;SDS011;34681;49.188;-0.374;2023-07-09T14:42:25;2.83;;;2.13;;
48861;SDS011;34681;49.188;-0.374;2023-07-09T14:44:51;3.10;;;1.40;;
48861;SDS011;34681;49.188;-0.374;2023-07-09T14:47:19;2.90;;;1.97;;
48861;SDS011;34681;49.188;-0.374;2023-07-09T14:49:46;2.30;;;2.10;;
48861;SDS011;34681;49.188;-0.374;2023-07-09T14:52:13;2.17;;;1.80;;
48861;SDS011;34681;49.188;-0.374;2023-07-09T14:54:40;3.07;;;1.90;;
48861;SDS011;34681;49.188;-0.374;2023-07-09T14:57:08;1.60;;;1.50;;
48861;SDS011;34681;49.188;-0.374;2023-07-09T14:59:42;2.57;;;2.37;;
48861;SDS011;34681;49.188;-0.374;2023-07-09T15:02:21;1.93;;;1.83;;
48861;SDS011;34681;49.188;-0.374;2023-07-09T15:05:03;3.17;;;1.90;;
48861;SDS011;34681;49.188;-0.374;2023-07-09T15:07:32;1.87;;;1.67;;
48861;SDS011;34681;49.188;-0.374;2023-07-09T15:09:58;2.87;;;2.13;;
48861;SDS011;34681;49.188;-0.374;2023-07-09T15:12:26;4.63;;;1.70;;
48861;SDS011;34681;49.188;-0.374;2023-07-09T15:15:01;3.53;;;1.87;;
48861;SDS011;34681;49.188;-0.374;2023-07-09T15:17:36;2.53;;;1.63;;
48861;SDS011;34681;49.188;-0.374;2023-07-09T15:20:02;3.27;;;1.70;;
48861;SDS011;34681;49.188;-0.374;2023-07-09T15:22:30;3.83;;;1.77;;
48861;SDS011;34681;49.188;-0.374;2023-07-09T15:24:58;3.20;;;1.60;;
48861;SDS011;34681;49.188;-0.374;2023-07-09T15:27:23;2.30;;;2.03;;
48861;SDS011;34681;49.188;-0.374;2023-07-09T15:29:49;3.07;;;2.60;;
48861;SDS011;34681;49.188;-0.374;2023-07-09T15:32:15;2.10;;;1.90;;
48861;SDS011;34681;49.188;-0.374;2023-07-09T15:34:41;2.03;;;1.83;;
48861;SDS011;34681;49.188;-0.374;2023-07-09T15:37:13;2.50;;;2.00;;